Asteria — WDE5489 — position and weather

sailwx.info

Track history (hours):
 
Tides and Currents Weather Stations Pressure Air Temp Water Temp Dewpoint Dewpoint Depression Visibility Wind Speed Wind Dir Waves Ship Positions

Asteria

Owner: Boston HarborCruises, Boston, MA. More information available from US FCC via Universal Licensing System and Coast Guard Vessel Documentation Center.

Last reported at 2017-Apr-27 18:30 UTC. Time now 2017-Apr-27 18:54 UTC.
Position N 42°22' W 071°02'.

Length 33 m; draft 2 m.

Type: High speed craft. MMSI: 367367470.

Date/timePositionNaut miles runAvg speedWind from/ knotsBaromVisibWave heightAir tempDewpointWater temp
2017-Apr-27 18:30N 42°22' W 071°02'1 1.0
2017-Apr-27 17:52N 42°22' W 071°03'1 2.3
2017-Apr-27 17:30N 42°21' W 071°02'1224.7
2017-Apr-27 17:01N 42°23' W 070°45'1223.9
2017-Apr-27 16:30N 42°23' W 070°29'1 2.4
2017-Apr-27 16:00N 42°23' W 070°28'3 6.7
2017-Apr-27 15:30N 42°24' W 070°33'815.2
2017-Apr-27 15:00N 42°27' W 070°42'1616.1
2017-Apr-27 14:00N 42°22' W 071°03'611.0
2017-Apr-27 13:30N 42°18' W 070°58'3 6.0
2017-Apr-27 13:00N 42°15' W 070°55'816.9
2017-Apr-27 12:31N 42°21' W 071°03'510.0
2017-Apr-27 12:00N 42°18' W 070°58'3 6.3
2017-Apr-27 11:29N 42°15' W 070°55'612.3
2017-Apr-27 11:00N 42°20' W 070°60'3 5.3
2017-Apr-27 10:30N 42°21' W 071°03'814.6
2017-Apr-27 09:56N 42°15' W 070°55'0 0.0
2017-Apr-27 09:30N 42°15' W 070°55'0 0.0
2017-Apr-27 01:01N 42°15' W 070°55'0 7.3
2017-Apr-27 01:00N 42°16' W 070°55'816.2
2017-Apr-27 00:30N 42°21' W 071°03'3 5.9
2017-Apr-27 00:00N 42°20' W 070°60'510.3
2017-Apr-26 23:29N 42°15' W 070°55'817.2
2017-Apr-26 23:00N 42°21' W 071°03'2 4.0
2017-Apr-26 22:30N 42°20' W 071°01'712.6
2017-Apr-26 21:59N 42°15' W 070°55'713.8
2017-Apr-26 21:31N 42°21' W 071°01'2 3.4
2017-Apr-26 21:01N 42°21' W 071°03'1 3.0
2017-Apr-26 20:31N 42°21' W 071°01'710.9
2017-Apr-26 19:54N 42°15' W 070°55'820.4
2017-Apr-26 19:30N 42°21' W 071°02'2 3.8
2017-Apr-26 19:00N 42°20' W 071°00'5 1.2
2017-Apr-26 14:26N 42°16' W 070°56'8 8.2
2017-Apr-26 13:30N 42°22' W 071°03'1 1.1
2017-Apr-26 13:00N 42°22' W 071°02'0 0.5
2017-Apr-26 12:30N 42°21' W 071°02'510.8
2017-Apr-26 12:01N 42°17' W 070°58'3 5.6
2017-Apr-26 11:30N 42°15' W 070°55'612.9
2017-Apr-26 11:01N 42°20' W 071°00'2 4.2
2017-Apr-26 10:30N 42°21' W 071°03'816.5
2017-Apr-26 10:00N 42°15' W 070°55'0 0.0
2017-Apr-26 09:30N 42°15' W 070°55'0 0.0
2017-Apr-26 01:05N 42°15' W 070°55'0 2.2
2017-Apr-26 00:59N 42°15' W 070°55'817.2
2017-Apr-26 00:30N 42°21' W 071°03'2 4.4
2017-Apr-26 00:00N 42°20' W 071°00'612.6
2017-Apr-25 23:30N 42°15' W 070°55'816.5
2017-Apr-25 23:00N 42°21' W 071°03'2 3.4
2017-Apr-25 22:30N 42°21' W 071°01'713.8
2017-Apr-25 22:00N 42°15' W 070°55'713.4
2017-Apr-25 21:31N 42°21' W 071°01'2 3.7
2017-Apr-25 21:01N 42°21' W 071°03'1 2.6
2017-Apr-25 20:31N 42°21' W 071°01'714.5
2017-Apr-25 20:00N 42°15' W 070°55'816.0
2017-Apr-25 19:31N 42°21' W 071°02'1 1.3
2017-Apr-25 19:01N 42°22' W 071°03'0 0.0
2017-Apr-25 18:31N 42°22' W 071°03'0 0.0
2017-Apr-25 18:01N 42°22' W 071°03'816.6
2017-Apr-25 17:31N 42°23' W 070°52'1427.6
2017-Apr-25 17:00N 42°22' W 070°33'611.9
2017-Apr-25 16:30N 42°23' W 070°25'1 1.4
2017-Apr-25 16:00N 42°24' W 070°26'2 3.9
2017-Apr-25 15:30N 42°25' W 070°28'4 8.5
2017-Apr-25 15:01N 42°25' W 070°33'2221.6
2017-Apr-25 13:59N 42°22' W 071°03'0 0.0
2017-Apr-25 13:30N 42°22' W 071°03'0 0.8
2017-Apr-25 13:00N 42°22' W 071°03'0 0.4
2017-Apr-25 12:30N 42°21' W 071°02'510.4
2017-Apr-25 12:01N 42°18' W 070°58'3 6.0
2017-Apr-25 11:30N 42°15' W 070°55'612.0
2017-Apr-25 11:01N 42°20' W 071°00'3 5.0
2017-Apr-25 10:30N 42°21' W 071°03'816.7
2017-Apr-25 10:00N 42°15' W 070°55'0 0.0
2017-Apr-25 09:29N 42°15' W 070°55'0 0.0
2017-Apr-25 01:03N 42°15' W 070°55'0 0.4
2017-Apr-25 01:00N 42°15' W 070°55'816.6
2017-Apr-25 00:30N 42°21' W 071°03'3 5.4
2017-Apr-25 00:01N 42°20' W 070°60'611.6
2017-Apr-24 23:30N 42°15' W 070°55'816.7
2017-Apr-24 23:00N 42°21' W 071°03'2 4.2
2017-Apr-24 22:31N 42°20' W 071°00'612.8
2017-Apr-24 22:00N 42°15' W 070°55'713.4
2017-Apr-24 21:31N 42°21' W 071°01'2 3.3
2017-Apr-24 21:00N 42°21' W 071°03'3 6.6
2017-Apr-24 20:30N 42°19' W 070°59'510.0
2017-Apr-24 20:00N 42°15' W 070°55'816.1
2017-Apr-24 19:30N 42°21' W 071°02'0 0.3
2017-Apr-24 19:00N 42°21' W 071°02'0 0.9
2017-Apr-24 18:30N 42°22' W 071°03'815.5
2017-Apr-24 18:01N 42°21' W 070°53'816.8
2017-Apr-24 17:30N 42°22' W 070°41'917.0
2017-Apr-24 17:00N 42°25' W 070°30'1 2.4
2017-Apr-24 16:30N 42°24' W 070°29'2 4.1
2017-Apr-24 16:00N 42°26' W 070°28'2 4.3
2017-Apr-24 15:30N 42°25' W 070°30'611.1
2017-Apr-24 15:00N 42°22' W 070°36'1427.2
2017-Apr-24 14:31N 42°21' W 070°55'6 6.2
2017-Apr-24 13:30N 42°22' W 071°03'0 0.8
2017-Apr-24 13:00N 42°22' W 071°02'0 0.4
2017-Apr-24 12:30N 42°22' W 071°02'5 9.4
2017-Apr-24 12:01N 42°18' W 070°58'3 6.5
2017-Apr-24 11:29N 42°15' W 070°55'613.2
2017-Apr-24 11:01N 42°20' W 071°00'2 4.7
2017-Apr-24 10:30N 42°21' W 071°03'816.0
2017-Apr-24 09:59N 42°15' W 070°55'0 0.0
2017-Apr-23 20:30N 42°16' W 070°55'815.7
2017-Apr-23 19:59N 42°22' W 071°03'0 0.8
2017-Apr-23 19:31N 42°22' W 071°02'815.5
2017-Apr-23 19:01N 42°19' W 070°52'816.3
2017-Apr-23 18:31N 42°22' W 071°03'0 0.0
2017-Apr-23 18:01N 42°22' W 071°03'0 0.0
2017-Apr-23 17:29N 42°22' W 071°03'0 0.5
2017-Apr-23 17:00N 42°21' W 071°03'0 0.0
2017-Apr-23 16:31N 42°21' W 071°03'0 0.0
2017-Apr-23 16:01N 42°21' W 071°03'0 0.0
2017-Apr-23 15:31N 42°21' W 071°03'0 0.0
2017-Apr-23 15:01N 42°21' W 071°03'0 0.0
2017-Apr-23 14:00N 42°21' W 071°03'0 0.0
2017-Apr-23 13:29N 42°21' W 071°03'0 0.0
2017-Apr-23 13:00N 42°21' W 071°03'1 1.4
2017-Apr-23 12:31N 42°22' W 071°02'1 2.3
2017-Apr-23 12:00N 42°21' W 071°01'7 0.3
2017-Apr-22 15:28N 42°15' W 070°55'3 5.6
2017-Apr-22 15:01N 42°17' W 070°57'611.6
2017-Apr-22 14:30N 42°22' W 071°03'0 0.0
2017-Apr-22 13:30N 42°22' W 071°03'0 0.0
2017-Apr-22 12:59N 42°22' W 071°03'4 7.3
2017-Apr-22 12:30N 42°19' W 070°60'5 0.4
2017-Apr-22 00:32N 42°15' W 070°55'0 0.0
2017-Apr-22 00:28N 42°15' W 070°55'2 1.2
2017-Apr-21 22:33N 42°15' W 070°58'114.2
2017-Apr-21 22:27N 42°15' W 070°57'1 2.4
2017-Apr-21 22:00N 42°16' W 070°55'714.6
2017-Apr-21 21:30N 42°21' W 071°02'1 1.4
2017-Apr-21 21:01N 42°21' W 071°03'1 2.9
2017-Apr-21 20:30N 42°23' W 071°03'0 0.0
2017-Apr-21 19:59N 42°23' W 071°03'0 0.0
2017-Apr-21 19:30N 42°23' W 071°03'0 0.0
2017-Apr-21 18:55N 42°23' W 071°03'0 0.0
2017-Apr-21 18:29N 42°23' W 071°03'0 0.0
2017-Apr-21 18:00N 42°23' W 071°03'0 0.0
2017-Apr-21 17:30N 42°23' W 071°03'0 0.0
2017-Apr-21 17:00N 42°23' W 071°03'0 0.0
2017-Apr-21 16:30N 42°23' W 071°03'1 1.2
2017-Apr-21 16:00N 42°22' W 071°03'1 1.4
2017-Apr-21 15:30N 42°22' W 071°03'0 0.0
2017-Apr-21 15:00N 42°22' W 071°03'0 0.0
2017-Apr-21 14:30N 42°22' W 071°03'0 0.0
2017-Apr-21 13:30N 42°22' W 071°03'1 1.1
2017-Apr-21 13:00N 42°22' W 071°02'0 0.0
2017-Apr-21 12:30N 42°22' W 071°02'4 8.9
2017-Apr-21 12:01N 42°18' W 070°58'4 7.2
2017-Apr-21 11:29N 42°15' W 070°55'714.0
2017-Apr-21 11:01N 42°20' W 071°01'2 3.8
2017-Apr-21 10:30N 42°21' W 071°03'816.4
2017-Apr-21 10:00N 42°15' W 070°55'1 0.1
2017-Apr-21 00:51N 42°16' W 070°55'822.6
2017-Apr-21 00:30N 42°21' W 071°03'1 1.7
2017-Apr-21 00:01N 42°21' W 071°02'815.1
2017-Apr-20 23:30N 42°15' W 070°55'816.8
2017-Apr-20 23:00N 42°21' W 071°03'1 2.8
2017-Apr-20 22:31N 42°21' W 071°01'710.6
2017-Apr-20 21:50N 42°15' W 070°55'720.5
2017-Apr-20 21:31N 42°20' W 071°01'2 3.8
2017-Apr-20 21:00N 42°21' W 071°03'0 0.5
2017-Apr-20 20:30N 42°22' W 071°03'0 0.0
2017-Apr-20 20:00N 42°22' W 071°03'0 0.0
2017-Apr-20 19:29N 42°22' W 071°03'0 0.0
2017-Apr-20 19:00N 42°22' W 071°03'0 0.0
2017-Apr-20 18:24N 42°22' W 071°03'0 0.0
2017-Apr-20 18:00N 42°22' W 071°03'2 4.2
2017-Apr-20 17:31N 42°21' W 071°00'1122.6
2017-Apr-20 17:01N 42°23' W 070°45'1122.9
2017-Apr-20 16:31N 42°23' W 070°30'3 6.2
2017-Apr-20 16:00N 42°24' W 070°26'4 8.4
2017-Apr-20 15:30N 42°26' W 070°31'917.2
2017-Apr-20 15:00N 42°32' W 070°40'1325.5
2017-Apr-20 14:31N 42°23' W 070°52'8 8.0
2017-Apr-20 13:30N 42°22' W 071°03'0 0.3
2017-Apr-20 13:00N 42°22' W 071°03'0 0.9
2017-Apr-20 12:31N 42°22' W 071°02'4 8.2
2017-Apr-20 12:01N 42°18' W 070°59'4 7.4
2017-Apr-20 11:27N 42°15' W 070°55'613.3
2017-Apr-20 11:00N 42°20' W 070°60'3 5.3
2017-Apr-20 10:30N 42°21' W 071°03'8 0.9
2017-Apr-20 01:01N 42°15' W 070°55'0 4.4
2017-Apr-20 00:58N 42°15' W 070°55'817.8
2017-Apr-20 00:30N 42°21' W 071°03'2 4.8
2017-Apr-20 00:00N 42°20' W 071°00'612.3
2017-Apr-19 23:30N 42°15' W 070°55'816.6
2017-Apr-19 23:00N 42°21' W 071°03'2 3.6
2017-Apr-19 22:30N 42°21' W 071°01'713.1
2017-Apr-19 21:59N 42°15' W 070°55'715.1
2017-Apr-19 21:30N 42°21' W 071°01'1 2.3
2017-Apr-19 21:00N 42°21' W 071°03'0 0.5
2017-Apr-19 20:30N 42°22' W 071°03'0 0.0
2017-Apr-19 20:00N 42°22' W 071°03'0 0.0
2017-Apr-19 19:30N 42°22' W 071°03'0 0.0
2017-Apr-19 19:00N 42°22' W 071°03'0 0.0
2017-Apr-19 18:30N 42°22' W 071°03'0 0.0
2017-Apr-19 18:00N 42°22' W 071°03'0 0.0
2017-Apr-19 17:30N 42°22' W 071°03'0 0.1
2017-Apr-19 17:00N 42°22' W 071°03'918.3
2017-Apr-19 16:31N 42°23' W 070°51'1224.9
2017-Apr-19 16:00N 42°23' W 070°34'918.2
2017-Apr-19 15:31N 42°32' W 070°33'612.3
2017-Apr-19 15:00N 42°31' W 070°41'1325.9
2017-Apr-19 14:31N 42°23' W 070°54'7 6.6
2017-Apr-19 13:30N 42°22' W 071°03'1 1.2
2017-Apr-19 13:00N 42°22' W 071°02'0 0.1
2017-Apr-19 12:31N 42°22' W 071°02'4 8.2
2017-Apr-19 12:01N 42°18' W 070°59'4 7.8
2017-Apr-19 11:28N 42°15' W 070°55'613.4
2017-Apr-19 11:01N 42°20' W 071°00'2 4.2
2017-Apr-19 10:30N 42°21' W 071°03'816.4
2017-Apr-19 10:00N 42°15' W 070°55'1 0.1
2017-Apr-19 00:51N 42°16' W 070°56'822.2
2017-Apr-19 00:30N 42°21' W 071°03'2 3.4
2017-Apr-19 00:01N 42°21' W 071°01'712.4
2017-Apr-18 23:28N 42°15' W 070°55'817.9
2017-Apr-18 23:00N 42°21' W 071°03'1 2.9
2017-Apr-18 22:31N 42°21' W 071°01'710.1
2017-Apr-18 21:49N 42°15' W 070°55'620.7
2017-Apr-18 21:31N 42°20' W 071°01'2 3.5
2017-Apr-18 21:01N 42°21' W 071°03'0 0.3
2017-Apr-18 19:44N 42°22' W 071°03'0 0.0
2017-Apr-18 19:27N 42°22' W 071°03'0 0.0
2017-Apr-18 18:57N 42°22' W 071°03'0 0.0
2017-Apr-18 18:30N 42°22' W 071°03'0 0.0
2017-Apr-18 18:00N 42°22' W 071°03'3 6.3
2017-Apr-18 17:31N 42°20' W 070°59'1326.6
2017-Apr-18 17:01N 42°22' W 070°41'1020.2
2017-Apr-18 16:30N 42°24' W 070°28'2 3.2
2017-Apr-18 15:53N 42°25' W 070°25'1 3.8
2017-Apr-18 15:31N 42°25' W 070°27'714.1
2017-Apr-18 15:01N 42°22' W 070°36'2019.6
2017-Apr-18 14:00N 42°22' W 071°03'0 0.0
2017-Apr-18 13:30N 42°22' W 071°03'0 0.6
2017-Apr-18 13:00N 42°22' W 071°03'0 0.8
2017-Apr-18 12:31N 42°22' W 071°02'4 8.8
2017-Apr-18 12:01N 42°18' W 070°58'4 7.6
2017-Apr-18 11:30N 42°15' W 070°55'611.9
2017-Apr-18 11:00N 42°20' W 070°60'3 5.2
2017-Apr-18 10:30N 42°21' W 071°03'8 0.8
2017-Apr-18 00:57N 42°16' W 070°55'818.5
2017-Apr-18 00:30N 42°21' W 071°03'2 4.6
2017-Apr-18 00:00N 42°20' W 071°00'612.4
2017-Apr-17 23:30N 42°15' W 070°55'816.7
2017-Apr-17 23:00N 42°21' W 071°03'2 3.8
2017-Apr-17 22:30N 42°21' W 071°01'713.0
2017-Apr-17 22:00N 42°15' W 070°55'714.4
2017-Apr-17 21:31N 42°21' W 071°01'1 2.7
2017-Apr-17 21:00N 42°21' W 071°03'713.6
2017-Apr-17 20:31N 42°16' W 070°56'2 1.4
2017-Apr-17 18:52N 42°15' W 070°58'615.2
2017-Apr-17 18:30N 42°20' W 070°60'  
Track history (hours):
 
Tides and Currents Weather Stations Pressure Air Temp Water Temp Dewpoint Dewpoint Depression Visibility Wind Speed Wind Dir Waves Ship Positions

Asteria

Owner: Boston HarborCruises, Boston, MA. More information available from US FCC via Universal Licensing System and Coast Guard Vessel Documentation Center.

Last reported at 2017-Apr-27 18:30 UTC. Time now 2017-Apr-27 18:54 UTC.
Position N 42°22' W 071°02'.

Length 33 m; draft 2 m.

Type: High speed craft. MMSI: 367367470.

Date/timePositionNaut miles runAvg speedWind from/ knotsBaromVisibWave heightAir tempDewpointWater temp
2017-Apr-27 18:30N 42°22' W 071°02'1 1.0
2017-Apr-27 17:52N 42°22' W 071°03'1 2.3
2017-Apr-27 17:30N 42°21' W 071°02'1224.7
2017-Apr-27 17:01N 42°23' W 070°45'1223.9
2017-Apr-27 16:30N 42°23' W 070°29'1 2.4
2017-Apr-27 16:00N 42°23' W 070°28'3 6.7
2017-Apr-27 15:30N 42°24' W 070°33'815.2
2017-Apr-27 15:00N 42°27' W 070°42'1616.1
2017-Apr-27 14:00N 42°22' W 071°03'611.0
2017-Apr-27 13:30N 42°18' W 070°58'3 6.0
2017-Apr-27 13:00N 42°15' W 070°55'816.9
2017-Apr-27 12:31N 42°21' W 071°03'510.0
2017-Apr-27 12:00N 42°18' W 070°58'3 6.3
2017-Apr-27 11:29N 42°15' W 070°55'612.3
2017-Apr-27 11:00N 42°20' W 070°60'3 5.3
2017-Apr-27 10:30N 42°21' W 071°03'814.6
2017-Apr-27 09:56N 42°15' W 070°55'0 0.0
2017-Apr-27 09:30N 42°15' W 070°55'0 0.0
2017-Apr-27 01:01N 42°15' W 070°55'0 7.3
2017-Apr-27 01:00N 42°16' W 070°55'816.2
2017-Apr-27 00:30N 42°21' W 071°03'3 5.9
2017-Apr-27 00:00N 42°20' W 070°60'510.3
2017-Apr-26 23:29N 42°15' W 070°55'817.2
2017-Apr-26 23:00N 42°21' W 071°03'2 4.0
2017-Apr-26 22:30N 42°20' W 071°01'712.6
2017-Apr-26 21:59N 42°15' W 070°55'713.8
2017-Apr-26 21:31N 42°21' W 071°01'2 3.4
2017-Apr-26 21:01N 42°21' W 071°03'1 3.0
2017-Apr-26 20:31N 42°21' W 071°01'710.9
2017-Apr-26 19:54N 42°15' W 070°55'820.4
2017-Apr-26 19:30N 42°21' W 071°02'2 3.8
2017-Apr-26 19:00N 42°20' W 071°00'5 1.2
2017-Apr-26 14:26N 42°16' W 070°56'8 8.2
2017-Apr-26 13:30N 42°22' W 071°03'1 1.1
2017-Apr-26 13:00N 42°22' W 071°02'0 0.5
2017-Apr-26 12:30N 42°21' W 071°02'510.8
2017-Apr-26 12:01N 42°17' W 070°58'3 5.6
2017-Apr-26 11:30N 42°15' W 070°55'612.9
2017-Apr-26 11:01N 42°20' W 071°00'2 4.2
2017-Apr-26 10:30N 42°21' W 071°03'816.5
2017-Apr-26 10:00N 42°15' W 070°55'0 0.0
2017-Apr-26 09:30N 42°15' W 070°55'0 0.0
2017-Apr-26 01:05N 42°15' W 070°55'0 2.2
2017-Apr-26 00:59N 42°15' W 070°55'817.2
2017-Apr-26 00:30N 42°21' W 071°03'2 4.4
2017-Apr-26 00:00N 42°20' W 071°00'612.6
2017-Apr-25 23:30N 42°15' W 070°55'816.5
2017-Apr-25 23:00N 42°21' W 071°03'2 3.4
2017-Apr-25 22:30N 42°21' W 071°01'713.8
2017-Apr-25 22:00N 42°15' W 070°55'713.4
2017-Apr-25 21:31N 42°21' W 071°01'2 3.7
2017-Apr-25 21:01N 42°21' W 071°03'1 2.6
2017-Apr-25 20:31N 42°21' W 071°01'714.5
2017-Apr-25 20:00N 42°15' W 070°55'816.0
2017-Apr-25 19:31N 42°21' W 071°02'1 1.3
2017-Apr-25 19:01N 42°22' W 071°03'0 0.0
2017-Apr-25 18:31N 42°22' W 071°03'0 0.0
2017-Apr-25 18:01N 42°22' W 071°03'816.6
2017-Apr-25 17:31N 42°23' W 070°52'1427.6
2017-Apr-25 17:00N 42°22' W 070°33'611.9
2017-Apr-25 16:30N 42°23' W 070°25'1 1.4
2017-Apr-25 16:00N 42°24' W 070°26'2 3.9
2017-Apr-25 15:30N 42°25' W 070°28'4 8.5
2017-Apr-25 15:01N 42°25' W 070°33'2221.6
2017-Apr-25 13:59N 42°22' W 071°03'0 0.0
2017-Apr-25 13:30N 42°22' W 071°03'0 0.8
2017-Apr-25 13:00N 42°22' W 071°03'0 0.4
2017-Apr-25 12:30N 42°21' W 071°02'510.4
2017-Apr-25 12:01N 42°18' W 070°58'3 6.0
2017-Apr-25 11:30N 42°15' W 070°55'612.0
2017-Apr-25 11:01N 42°20' W 071°00'3 5.0
2017-Apr-25 10:30N 42°21' W 071°03'816.7
2017-Apr-25 10:00N 42°15' W 070°55'0 0.0
2017-Apr-25 09:29N 42°15' W 070°55'0 0.0
2017-Apr-25 01:03N 42°15' W 070°55'0 0.4
2017-Apr-25 01:00N 42°15' W 070°55'816.6
2017-Apr-25 00:30N 42°21' W 071°03'3 5.4
2017-Apr-25 00:01N 42°20' W 070°60'611.6
2017-Apr-24 23:30N 42°15' W 070°55'816.7
2017-Apr-24 23:00N 42°21' W 071°03'2 4.2
2017-Apr-24 22:31N 42°20' W 071°00'612.8
2017-Apr-24 22:00N 42°15' W 070°55'713.4
2017-Apr-24 21:31N 42°21' W 071°01'2 3.3
2017-Apr-24 21:00N 42°21' W 071°03'3 6.6
2017-Apr-24 20:30N 42°19' W 070°59'510.0
2017-Apr-24 20:00N 42°15' W 070°55'816.1
2017-Apr-24 19:30N 42°21' W 071°02'0 0.3
2017-Apr-24 19:00N 42°21' W 071°02'0 0.9
2017-Apr-24 18:30N 42°22' W 071°03'815.5
2017-Apr-24 18:01N 42°21' W 070°53'816.8
2017-Apr-24 17:30N 42°22' W 070°41'917.0
2017-Apr-24 17:00N 42°25' W 070°30'1 2.4
2017-Apr-24 16:30N 42°24' W 070°29'2 4.1
2017-Apr-24 16:00N 42°26' W 070°28'2 4.3
2017-Apr-24 15:30N 42°25' W 070°30'611.1
2017-Apr-24 15:00N 42°22' W 070°36'1427.2
2017-Apr-24 14:31N 42°21' W 070°55'6 6.2
2017-Apr-24 13:30N 42°22' W 071°03'0 0.8
2017-Apr-24 13:00N 42°22' W 071°02'0 0.4
2017-Apr-24 12:30N 42°22' W 071°02'5 9.4
2017-Apr-24 12:01N 42°18' W 070°58'3 6.5
2017-Apr-24 11:29N 42°15' W 070°55'613.2
2017-Apr-24 11:01N 42°20' W 071°00'2 4.7
2017-Apr-24 10:30N 42°21' W 071°03'816.0
2017-Apr-24 09:59N 42°15' W 070°55'0 0.0
2017-Apr-23 20:30N 42°16' W 070°55'815.7
2017-Apr-23 19:59N 42°22' W 071°03'0 0.8
2017-Apr-23 19:31N 42°22' W 071°02'815.5
2017-Apr-23 19:01N 42°19' W 070°52'816.3
2017-Apr-23 18:31N 42°22' W 071°03'0 0.0
2017-Apr-23 18:01N 42°22' W 071°03'0 0.0
2017-Apr-23 17:29N 42°22' W 071°03'0 0.5
2017-Apr-23 17:00N 42°21' W 071°03'0 0.0
2017-Apr-23 16:31N 42°21' W 071°03'0 0.0
2017-Apr-23 16:01N 42°21' W 071°03'0 0.0
2017-Apr-23 15:31N 42°21' W 071°03'0 0.0
2017-Apr-23 15:01N 42°21' W 071°03'0 0.0
2017-Apr-23 14:00N 42°21' W 071°03'0 0.0
2017-Apr-23 13:29N 42°21' W 071°03'0 0.0
2017-Apr-23 13:00N 42°21' W 071°03'1 1.4
2017-Apr-23 12:31N 42°22' W 071°02'1 2.3
2017-Apr-23 12:00N 42°21' W 071°01'7 0.3
2017-Apr-22 15:28N 42°15' W 070°55'3 5.6
2017-Apr-22 15:01N 42°17' W 070°57'611.6
2017-Apr-22 14:30N 42°22' W 071°03'0 0.0
2017-Apr-22 13:30N 42°22' W 071°03'0 0.0
2017-Apr-22 12:59N 42°22' W 071°03'4 7.3
2017-Apr-22 12:30N 42°19' W 070°60'5 0.4
2017-Apr-22 00:32N 42°15' W 070°55'0 0.0
2017-Apr-22 00:28N 42°15' W 070°55'2 1.2
2017-Apr-21 22:33N 42°15' W 070°58'114.2
2017-Apr-21 22:27N 42°15' W 070°57'1 2.4
2017-Apr-21 22:00N 42°16' W 070°55'714.6
2017-Apr-21 21:30N 42°21' W 071°02'1 1.4
2017-Apr-21 21:01N 42°21' W 071°03'1 2.9
2017-Apr-21 20:30N 42°23' W 071°03'0 0.0
2017-Apr-21 19:59N 42°23' W 071°03'0 0.0
2017-Apr-21 19:30N 42°23' W 071°03'0 0.0
2017-Apr-21 18:55N 42°23' W 071°03'0 0.0
2017-Apr-21 18:29N 42°23' W 071°03'0 0.0
2017-Apr-21 18:00N 42°23' W 071°03'0 0.0
2017-Apr-21 17:30N 42°23' W 071°03'0 0.0
2017-Apr-21 17:00N 42°23' W 071°03'0 0.0
2017-Apr-21 16:30N 42°23' W 071°03'1 1.2
2017-Apr-21 16:00N 42°22' W 071°03'1 1.4
2017-Apr-21 15:30N 42°22' W 071°03'0 0.0
2017-Apr-21 15:00N 42°22' W 071°03'0 0.0
2017-Apr-21 14:30N 42°22' W 071°03'0 0.0
2017-Apr-21 13:30N 42°22' W 071°03'1 1.1
2017-Apr-21 13:00N 42°22' W 071°02'0 0.0
2017-Apr-21 12:30N 42°22' W 071°02'4 8.9
2017-Apr-21 12:01N 42°18' W 070°58'4 7.2
2017-Apr-21 11:29N 42°15' W 070°55'714.0
2017-Apr-21 11:01N 42°20' W 071°01'2 3.8
2017-Apr-21 10:30N 42°21' W 071°03'816.4
2017-Apr-21 10:00N 42°15' W 070°55'1 0.1
2017-Apr-21 00:51N 42°16' W 070°55'822.6
2017-Apr-21 00:30N 42°21' W 071°03'1 1.7
2017-Apr-21 00:01N 42°21' W 071°02'815.1
2017-Apr-20 23:30N 42°15' W 070°55'816.8
2017-Apr-20 23:00N 42°21' W 071°03'1 2.8
2017-Apr-20 22:31N 42°21' W 071°01'710.6
2017-Apr-20 21:50N 42°15' W 070°55'720.5
2017-Apr-20 21:31N 42°20' W 071°01'2 3.8
2017-Apr-20 21:00N 42°21' W 071°03'0 0.5
2017-Apr-20 20:30N 42°22' W 071°03'0 0.0
2017-Apr-20 20:00N 42°22' W 071°03'0 0.0
2017-Apr-20 19:29N 42°22' W 071°03'0 0.0
2017-Apr-20 19:00N 42°22' W 071°03'0 0.0
2017-Apr-20 18:24N 42°22' W 071°03'0 0.0
2017-Apr-20 18:00N 42°22' W 071°03'2 4.2
2017-Apr-20 17:31N 42°21' W 071°00'1122.6
2017-Apr-20 17:01N 42°23' W 070°45'1122.9
2017-Apr-20 16:31N 42°23' W 070°30'3 6.2
2017-Apr-20 16:00N 42°24' W 070°26'4 8.4
2017-Apr-20 15:30N 42°26' W 070°31'917.2
2017-Apr-20 15:00N 42°32' W 070°40'1325.5
2017-Apr-20 14:31N 42°23' W 070°52'8 8.0
2017-Apr-20 13:30N 42°22' W 071°03'0 0.3
2017-Apr-20 13:00N 42°22' W 071°03'0 0.9
2017-Apr-20 12:31N 42°22' W 071°02'4 8.2
2017-Apr-20 12:01N 42°18' W 070°59'4 7.4
2017-Apr-20 11:27N 42°15' W 070°55'613.3
2017-Apr-20 11:00N 42°20' W 070°60'3 5.3
2017-Apr-20 10:30N 42°21' W 071°03'8 0.9
2017-Apr-20 01:01N 42°15' W 070°55'0 4.4
2017-Apr-20 00:58N 42°15' W 070°55'817.8
2017-Apr-20 00:30N 42°21' W 071°03'2 4.8
2017-Apr-20 00:00N 42°20' W 071°00'612.3
2017-Apr-19 23:30N 42°15' W 070°55'816.6
2017-Apr-19 23:00N 42°21' W 071°03'2 3.6
2017-Apr-19 22:30N 42°21' W 071°01'713.1
2017-Apr-19 21:59N 42°15' W 070°55'715.1
2017-Apr-19 21:30N 42°21' W 071°01'1 2.3
2017-Apr-19 21:00N 42°21' W 071°03'0 0.5
2017-Apr-19 20:30N 42°22' W 071°03'0 0.0
2017-Apr-19 20:00N 42°22' W 071°03'0 0.0
2017-Apr-19 19:30N 42°22' W 071°03'0 0.0
2017-Apr-19 19:00N 42°22' W 071°03'0 0.0
2017-Apr-19 18:30N 42°22' W 071°03'0 0.0
2017-Apr-19 18:00N 42°22' W 071°03'0 0.0
2017-Apr-19 17:30N 42°22' W 071°03'0 0.1
2017-Apr-19 17:00N 42°22' W 071°03'918.3
2017-Apr-19 16:31N 42°23' W 070°51'1224.9
2017-Apr-19 16:00N 42°23' W 070°34'918.2
2017-Apr-19 15:31N 42°32' W 070°33'612.3
2017-Apr-19 15:00N 42°31' W 070°41'1325.9
2017-Apr-19 14:31N 42°23' W 070°54'7 6.6
2017-Apr-19 13:30N 42°22' W 071°03'1 1.2
2017-Apr-19 13:00N 42°22' W 071°02'0 0.1
2017-Apr-19 12:31N 42°22' W 071°02'4 8.2
2017-Apr-19 12:01N 42°18' W 070°59'4 7.8
2017-Apr-19 11:28N 42°15' W 070°55'613.4
2017-Apr-19 11:01N 42°20' W 071°00'2 4.2
2017-Apr-19 10:30N 42°21' W 071°03'816.4
2017-Apr-19 10:00N 42°15' W 070°55'1 0.1
2017-Apr-19 00:51N 42°16' W 070°56'822.2
2017-Apr-19 00:30N 42°21' W 071°03'2 3.4
2017-Apr-19 00:01N 42°21' W 071°01'712.4
2017-Apr-18 23:28N 42°15' W 070°55'817.9
2017-Apr-18 23:00N 42°21' W 071°03'1 2.9
2017-Apr-18 22:31N 42°21' W 071°01'710.1
2017-Apr-18 21:49N 42°15' W 070°55'620.7
2017-Apr-18 21:31N 42°20' W 071°01'2 3.5
2017-Apr-18 21:01N 42°21' W 071°03'0 0.3
2017-Apr-18 19:44N 42°22' W 071°03'0 0.0
2017-Apr-18 19:27N 42°22' W 071°03'0 0.0
2017-Apr-18 18:57N 42°22' W 071°03'0 0.0
2017-Apr-18 18:30N 42°22' W 071°03'0 0.0
2017-Apr-18 18:00N 42°22' W 071°03'3 6.3
2017-Apr-18 17:31N 42°20' W 070°59'1326.6
2017-Apr-18 17:01N 42°22' W 070°41'1020.2
2017-Apr-18 16:30N 42°24' W 070°28'2 3.2
2017-Apr-18 15:53N 42°25' W 070°25'1 3.8
2017-Apr-18 15:31N 42°25' W 070°27'714.1
2017-Apr-18 15:01N 42°22' W 070°36'2019.6
2017-Apr-18 14:00N 42°22' W 071°03'0 0.0
2017-Apr-18 13:30N 42°22' W 071°03'0 0.6
2017-Apr-18 13:00N 42°22' W 071°03'0 0.8
2017-Apr-18 12:31N 42°22' W 071°02'4 8.8
2017-Apr-18 12:01N 42°18' W 070°58'4 7.6
2017-Apr-18 11:30N 42°15' W 070°55'611.9
2017-Apr-18 11:00N 42°20' W 070°60'3 5.2
2017-Apr-18 10:30N 42°21' W 071°03'8 0.8
2017-Apr-18 00:57N 42°16' W 070°55'818.5
2017-Apr-18 00:30N 42°21' W 071°03'2 4.6
2017-Apr-18 00:00N 42°20' W 071°00'612.4
2017-Apr-17 23:30N 42°15' W 070°55'816.7
2017-Apr-17 23:00N 42°21' W 071°03'2 3.8
2017-Apr-17 22:30N 42°21' W 071°01'713.0
2017-Apr-17 22:00N 42°15' W 070°55'714.4
2017-Apr-17 21:31N 42°21' W 071°01'1 2.7
2017-Apr-17 21:00N 42°21' W 071°03'713.6
2017-Apr-17 20:31N 42°16' W 070°56'2 1.4
2017-Apr-17 18:52N 42°15' W 070°58'615.2
2017-Apr-17 18:30N 42°20' W 070°60'  

Dump ship's entire track history